Holdridge, Nebraska
Current Conditions -  °F | °C
As of 6:15 PM on Sunday 25 Jan 2015 (Local Time) from KHDE Reporting Station
Clear Clear  
Wind Chill:   Ceiling: Unl
Heat Index:   Visibility: 10mi
Dew Point: -5°   Wind: 3mph
Humidity: 66%   Direction: 50°NE
Pressure: 30.07"   Gusts: NA
Location:  40.4958°N, 99.3198°W
Report Text: KHDE 260015Z AUTO 05003KT 10SM CLR 01/M05 A3007 RMK AO2 T00101047
Loading
Personal Weather Stations






























Interactive Weather Map New forecast layout! Learn more

10-Day Weather Forecast

Advertisements
Track Severe Weather on mobile